Meteo Giornale » Osservazioni meteo Italia » Palermo-Punta Raisi

ore: 19:20 - Osservazioni Meteo Palermo-Punta Raisi
Lat. 38° 11' N Lon. 13° 6' E Alt. 21 metri s.l.m.

sereno Europe/Rome

20 °C

Sereno

Temp. 24 Ore

13 °C

24 °C

Ovest

9.3 Km/h

Dew point 15 °C

Umidità 72 %

Visibilità  10 Km

Il sole sorge alle ore 06:17

Il sole tramonta alle ore 19:53

Data e Ora Cielo e Fenomeni T °C DP °C Um. % Pres. hPa Vis. km Vento km/h
Oggi h: 19:20 sereno Sereno 20 15 72 1018 10 O 9.3
Oggi h: 18:50 sereno Sereno 22 13 56 1018 10 E/NE 11.1
Oggi h: 18:20 sereno Sereno 23 11 46 1018 10 E/NE 20.3
Oggi h: 17:50 sereno Sereno 22 10 46 1018 10 NE 20.3
Oggi h: 17:20 sereno Sereno 23 12 49 1018 10 NE 18.5
Oggi h: 16:50 sereno Sereno 24 12 47 1018 10 NE 16.7
Oggi h: 16:20 sereno Sereno 23 10 43 1019 10 NE 16.7
Oggi h: 15:50 sereno Sereno 23 11 46 1019 10 E/NE 18.5
Oggi h: 15:20 sereno Sereno 23 12 49 1019 10 NE 20.3
Oggi h: 14:50 sereno Sereno 23 11 46 1019 10 E/NE 24
Oggi h: 14:20 sereno Sereno 22 14 60 1019 10 NE 18.5
Oggi h: 13:50 sereno Sereno 21 15 68 1019 10 NE 18.5
Oggi h: 13:20 sereno Sereno 23 13 53 1020 10 NE 9.3
Oggi h: 12:50 sereno Sereno 22 15 64 1020 10 N/NE 9.3
Oggi h: 12:20 sereno Sereno 20 14 68 1020 10 N 5.5
Oggi h: 11:50 sereno Sereno 20 15 72 1020 10 N 5.5
Oggi h: 11:20 sereno Sereno 19 15 77 1020 10 NO 7.4
Oggi h: 10:50 sereno Sereno 19 14 72 1020 10 N 5.5
Oggi h: 10:20 sereno Sereno 19 14 72 1020 10 N 5.5
Oggi h: 09:50 sereno Sereno 18 12 67 1020 10 N 5.5
Oggi h: 09:20 sereno Sereno 18 12 67 1020 10 N 3.7
Oggi h: 08:50 sereno Sereno 18 11 63 1020 10 N 1.8
Oggi h: 08:20 sereno Sereno 17 12 72 1019 10 N 3.7
Oggi h: 07:50 sereno Sereno 16 12 77 1019 10 N 3.7
Oggi h: 07:20 sereno Sereno 14 10 76 1019 10 N 5.5
Oggi h: 06:50 sereno Sereno 15 9 67 1019 10 N 5.5
Oggi h: 06:20 sereno Sereno 14 9 71 1019 10 N 3.7
Oggi h: 05:50 sereno Sereno 13 9 76 1019 10 N 3.7
Oggi h: 05:20 sereno Sereno 15 11 76 1019 10 NE 7.4
Oggi h: 04:50 sereno Sereno 14 10 76 1018 10 E/NE 7.4
Oggi h: 04:20 sereno Sereno 15 10 72 1019 10 E/NE 7.4
Oggi h: 03:50 sereno Sereno 16 10 67 1018 10 N 1.8
Oggi h: 03:20 sereno Sereno 16 10 67 1018 10 N 3.7
Oggi h: 02:50 sereno Sereno 14 10 76 1018 10 S 7.4
Oggi h: 02:20 sereno Sereno 15 11 76 1018 10 N 3.7
Oggi h: 01:50 sereno Sereno 16 11 72 1019 10 N 1.8
Oggi h: 01:20 sereno Sereno 16 10 67 1019 10 N 5.5
Oggi h: 00:50 sereno Sereno 16 12 77 1019 10 N 5.5
Oggi h: 00:20 sereno Sereno 16 12 77 1019 10 N 3.7
Ieri h: 23:50 sereno Sereno 17 13 77 1019 10 N 3.7
Ieri h: 23:20 sereno Sereno 17 13 77 1019 10 N 3.7
Ieri h: 22:50 sereno Sereno 18 14 77 1019 10 O/SO 9.3
Ieri h: 22:20 sereno Sereno 17 12 72 1019 10 N 1.8
Ieri h: 21:50 sereno Sereno 18 11 63 1019 10 E 7.4
Ieri h: 21:20 sereno Sereno 18 12 67 1019 10 E 11.1
Ieri h: 20:50 sereno Sereno 19 12 63 1019 10 E/NE 13
Ieri h: 20:20 sereno Sereno 19 12 63 1019 10 E 14.8
Ieri h: 19:50 sereno Sereno 19 15 77 1018 10 N/NE 18.5